createdAt,value
2019-06-08T00:03:50.200Z,18.60
2019-06-08T00:08:54.207Z,18.58
2019-06-08T00:13:58.293Z,18.51
2019-06-08T00:19:02.303Z,18.45
2019-06-08T00:24:06.330Z,18.54
2019-06-08T00:29:10.342Z,18.55
2019-06-08T00:34:14.695Z,18.61
2019-06-08T00:39:18.965Z,18.59
2019-06-08T00:44:23.369Z,18.62
2019-06-08T00:49:27.460Z,18.63
2019-06-08T00:54:31.726Z,18.69
2019-06-08T00:59:35.665Z,18.63
2019-06-08T01:04:39.592Z,18.44
2019-06-08T01:09:43.619Z,18.48
2019-06-08T01:14:47.748Z,18.48
2019-06-08T01:19:51.701Z,18.40
2019-06-08T01:24:55.737Z,18.37
2019-06-08T01:29:59.748Z,18.30
2019-06-08T01:35:04.062Z,18.34
2019-06-08T01:40:08.583Z,18.31
2019-06-08T01:45:16.218Z,18.25
2019-06-08T01:50:20.082Z,18.26
2019-06-08T01:55:25.128Z,18.30
2019-06-08T02:00:35.253Z,18.24
2019-06-08T02:05:35.689Z,18.28
2019-06-08T02:10:39.994Z,18.10
2019-06-08T02:15:44.146Z,18.05
2019-06-08T02:20:48.209Z,18.07
2019-06-08T02:25:52.285Z,18.20
2019-06-08T02:30:56.515Z,18.27
2019-06-08T02:36:00.518Z,18.33
2019-06-08T02:41:04.678Z,18.28
2019-06-08T02:46:08.733Z,18.35
2019-06-08T02:51:13.750Z,18.33
2019-06-08T02:56:20.444Z,18.28
2019-06-08T03:01:24.528Z,18.28
2019-06-08T03:06:32.240Z,18.22
2019-06-08T03:11:38.918Z,18.21
2019-06-08T03:16:43.373Z,18.22
2019-06-08T03:21:47.492Z,18.16
2019-06-08T03:26:51.973Z,18.19
2019-06-08T03:31:57.399Z,18.21
2019-06-08T03:37:02.165Z,18.11
2019-06-08T03:42:06.244Z,18.16
2019-06-08T03:47:10.545Z,18.21
2019-06-08T03:52:14.553Z,18.15
2019-06-08T03:57:18.576Z,18.12
2019-06-08T04:02:22.548Z,18.18
2019-06-08T04:07:26.792Z,18.19
2019-06-08T04:12:30.796Z,18.32
2019-06-08T04:17:34.813Z,18.42
2019-06-08T04:22:46.505Z,18.50
2019-06-08T04:27:51.138Z,18.58
2019-06-08T04:32:55.150Z,18.59
2019-06-08T04:37:59.396Z,18.61
2019-06-08T04:43:03.634Z,18.62
2019-06-08T04:48:09.613Z,18.65
2019-06-08T04:53:13.229Z,18.68
2019-06-08T04:58:17.189Z,18.69
2019-06-08T05:03:21.211Z,18.81
2019-06-08T05:08:25.461Z,18.76
2019-06-08T05:13:29.405Z,18.82
2019-06-08T05:18:33.416Z,18.79
2019-06-08T05:23:37.541Z,18.93
2019-06-08T05:28:41.559Z,19.01
2019-06-08T05:33:47.487Z,18.90
2019-06-08T05:38:51.481Z,18.91
2019-06-08T05:43:55.654Z,19.06
2019-06-08T05:49:00.000Z,19.07
2019-06-08T05:54:04.026Z,19.03
2019-06-08T05:59:08.020Z,18.95
2019-06-08T06:04:12.038Z,18.95
2019-06-08T06:09:16.059Z,19.01
2019-06-08T06:14:20.023Z,18.96
2019-06-08T06:19:24.006Z,18.87
2019-06-08T06:24:28.049Z,18.83
2019-06-08T06:29:32.164Z,18.91
2019-06-08T06:34:36.298Z,18.98
2019-06-08T06:39:40.229Z,19.10
2019-06-08T06:44:45.733Z,19.18
2019-06-08T06:49:50.631Z,19.24
2019-06-08T06:54:55.014Z,19.30
2019-06-08T06:59:59.173Z,19.36
2019-06-08T07:05:03.307Z,19.38
2019-06-08T07:10:08.891Z,19.56
2019-06-08T07:15:16.070Z,19.74
2019-06-08T07:20:20.077Z,19.72
2019-06-08T07:25:24.156Z,19.82
2019-06-08T07:30:28.164Z,19.81
2019-06-08T07:35:32.691Z,19.96
2019-06-08T07:40:36.689Z,20.16
2019-06-08T07:45:40.945Z,20.23
2019-06-08T07:50:44.954Z,20.44
2019-06-08T07:55:50.068Z,20.47
2019-06-08T08:00:59.454Z,20.58
2019-06-08T08:06:00.332Z,20.68
2019-06-08T08:11:04.414Z,20.54
2019-06-08T08:16:08.362Z,20.61
2019-06-08T08:21:22.153Z,20.73
2019-06-08T08:26:19.004Z,20.68
2019-06-08T08:31:23.206Z,20.64
2019-06-08T08:36:29.421Z,20.58
2019-06-08T08:41:32.930Z,20.52
2019-06-08T08:46:38.745Z,20.41
2019-06-08T08:51:43.103Z,20.50
2019-06-08T08:56:50.497Z,20.42
2019-06-08T09:01:52.972Z,20.42
2019-06-08T09:06:58.815Z,20.53
2019-06-08T09:12:08.093Z,20.69
2019-06-08T09:17:11.891Z,20.96
2019-06-08T09:22:18.627Z,21.02
2019-06-08T09:27:21.690Z,21.43
2019-06-08T09:32:28.083Z,21.71
2019-06-08T09:37:31.501Z,21.89
2019-06-08T09:42:35.954Z,22.01
2019-06-08T09:47:40.288Z,22.20
2019-06-08T09:52:44.381Z,22.09
2019-06-08T09:57:48.771Z,22.13
2019-06-08T10:02:54.655Z,22.11
2019-06-08T10:08:00.853Z,22.10
2019-06-08T10:13:09.209Z,22.42
2019-06-08T10:18:10.938Z,22.75
2019-06-08T10:23:29.922Z,22.72
2019-06-08T10:28:21.717Z,22.77
2019-06-08T10:33:28.114Z,23.38
2019-06-08T10:38:31.711Z,23.92
2019-06-08T10:43:38.302Z,24.12
2019-06-08T10:48:41.832Z,24.05
2019-06-08T10:53:51.908Z,24.56
2019-06-08T10:58:51.756Z,24.82
2019-06-08T11:03:58.076Z,25.14
2019-06-08T11:09:05.284Z,24.88
2019-06-08T11:14:12.215Z,24.88
2019-06-08T11:19:14.062Z,25.18
2019-06-08T11:24:24.499Z,26.09
2019-06-08T11:29:24.182Z,25.65
2019-06-08T11:34:28.772Z,25.65
2019-06-08T11:39:32.997Z,25.65
2019-06-08T11:44:39.057Z,25.47
2019-06-08T11:49:42.797Z,25.45
2019-06-08T11:54:48.106Z,25.83
2019-06-08T11:59:53.790Z,25.83
2019-06-08T12:04:57.842Z,24.95
2019-06-08T12:10:02.981Z,24.67
2019-06-08T12:15:11.186Z,24.42
2019-06-08T12:20:17.410Z,24.44
2019-06-08T12:25:18.991Z,24.34
2019-06-08T12:30:26.129Z,24.04
2019-06-08T12:35:28.731Z,23.90
2019-06-08T12:40:32.798Z,24.15
2019-06-08T12:45:38.097Z,24.58
2019-06-08T12:50:42.121Z,24.81
2019-06-08T12:55:47.558Z,24.73
2019-06-08T13:00:51.731Z,24.73
2019-06-08T13:05:57.550Z,24.56
2019-06-08T13:11:01.411Z,24.60
2019-06-08T13:16:05.397Z,24.25
2019-06-08T13:21:24.530Z,24.28
2019-06-08T13:26:20.165Z,24.35
2019-06-08T13:31:22.603Z,24.48
2019-06-08T13:36:29.569Z,24.47
2019-06-08T13:41:32.897Z,24.14
2019-06-08T13:46:37.890Z,24.26
2019-06-08T13:51:41.974Z,24.25
2019-06-08T13:56:47.914Z,23.85
2019-06-08T14:01:52.441Z,23.95
2019-06-08T14:06:58.116Z,23.80
2019-06-08T14:12:02.363Z,24.03
2019-06-08T14:17:08.350Z,23.99
2019-06-08T14:22:12.112Z,24.13
2019-06-08T14:27:17.128Z,24.02
2019-06-08T14:32:22.317Z,24.01
2019-06-08T14:37:28.960Z,24.11
2019-06-08T14:42:32.508Z,23.40
2019-06-08T14:47:37.676Z,23.45
2019-06-08T14:52:41.880Z,23.85
2019-06-08T14:57:48.027Z,23.85
2019-06-08T15:02:51.607Z,23.73
2019-06-08T15:07:58.118Z,23.80
2019-06-08T15:13:01.585Z,23.80
2019-06-08T15:18:08.406Z,23.88
2019-06-08T15:23:11.587Z,23.90
2019-06-08T15:28:15.586Z,23.76
2019-06-08T15:33:21.570Z,23.67
2019-06-08T15:38:25.463Z,23.76
2019-06-08T15:43:34.474Z,23.80
2019-06-08T15:48:38.160Z,23.68
2019-06-08T15:53:42.289Z,23.43
2019-06-08T15:58:48.678Z,23.22
2019-06-08T16:03:52.527Z,23.44
2019-06-08T16:08:56.637Z,23.57
2019-06-08T16:14:00.819Z,23.42
2019-06-08T16:19:04.968Z,23.39
2019-06-08T16:24:08.982Z,23.43
2019-06-08T16:29:12.934Z,23.47
2019-06-08T16:34:16.939Z,23.50
2019-06-08T16:39:20.877Z,23.41
2019-06-08T16:44:24.808Z,23.39
2019-06-08T16:49:29.166Z,23.49
2019-06-08T16:54:33.179Z,23.43
2019-06-08T16:59:38.576Z,23.13
2019-06-08T17:04:42.670Z,23.03
2019-06-08T17:09:46.692Z,23.16
2019-06-08T17:14:50.711Z,23.05
2019-06-08T17:19:55.000Z,23.09
2019-06-08T17:24:58.955Z,23.18
2019-06-08T17:30:08.351Z,23.16
2019-06-08T17:35:09.191Z,23.09
2019-06-08T17:40:13.419Z,23.01
2019-06-08T17:45:18.198Z,22.96
2019-06-08T17:50:24.088Z,22.91
2019-06-08T17:55:28.087Z,22.85
2019-06-08T18:00:33.205Z,22.80
2019-06-08T18:05:41.953Z,22.73
2019-06-08T18:10:44.431Z,22.70
2019-06-08T18:15:48.834Z,22.63
2019-06-08T18:20:52.975Z,22.44
2019-06-08T18:25:58.177Z,22.36
2019-06-08T18:31:02.479Z,22.23
2019-06-08T18:36:07.661Z,22.15
2019-06-08T18:41:11.679Z,22.00
2019-06-08T18:46:17.836Z,21.92
2019-06-08T18:51:21.740Z,21.78
2019-06-08T18:56:27.566Z,21.67
2019-06-08T19:01:31.950Z,21.57
2019-06-08T19:06:38.739Z,21.50
2019-06-08T19:11:43.557Z,21.39
2019-06-08T19:16:54.286Z,21.24
2019-06-08T19:21:53.247Z,21.08
2019-06-08T19:26:57.884Z,20.89
2019-06-08T19:32:02.169Z,20.66
2019-06-08T19:37:07.939Z,20.46
2019-06-08T19:42:11.969Z,20.18
2019-06-08T19:47:17.656Z,19.84
2019-06-08T19:52:22.195Z,19.56
2019-06-08T19:57:28.152Z,19.37
2019-06-08T20:02:32.054Z,19.21
2019-06-08T20:07:37.912Z,19.06
2019-06-08T20:12:43.209Z,18.83
2019-06-08T20:17:48.943Z,18.53
2019-06-08T20:22:54.972Z,18.32
2019-06-08T20:27:59.181Z,18.13
2019-06-08T20:33:03.359Z,17.94
2019-06-08T20:38:08.239Z,17.68
2019-06-08T20:43:12.465Z,17.63
2019-06-08T20:48:18.284Z,17.60
2019-06-08T20:53:23.886Z,17.56
2019-06-08T20:58:28.524Z,17.49
2019-06-08T21:03:32.558Z,17.39
2019-06-08T21:08:37.217Z,17.25
2019-06-08T21:13:41.684Z,17.12
2019-06-08T21:18:46.842Z,16.97
2019-06-08T21:23:54.186Z,16.88
2019-06-08T21:29:00.132Z,16.75
2019-06-08T21:34:02.166Z,16.64
2019-06-08T21:39:08.320Z,16.55
2019-06-08T21:44:12.455Z,16.48
2019-06-08T21:49:18.241Z,16.43
2019-06-08T21:54:22.247Z,16.32
2019-06-08T21:59:26.717Z,16.13
2019-06-08T22:04:31.138Z,16.10
2019-06-08T22:09:37.284Z,16.07
2019-06-08T22:14:40.962Z,16.01
2019-06-08T22:19:47.354Z,15.96
2019-06-08T22:24:51.862Z,15.84
2019-06-08T22:29:58.205Z,15.70
2019-06-08T22:35:03.290Z,15.61
2019-06-08T22:40:08.441Z,15.54
2019-06-08T22:45:12.741Z,15.40
2019-06-08T22:50:18.523Z,15.35
2019-06-08T22:55:22.558Z,15.33
2019-06-08T23:00:27.998Z,15.25
2019-06-08T23:05:32.807Z,15.19
2019-06-08T23:10:37.415Z,15.14
2019-06-08T23:15:41.577Z,15.10
2019-06-08T23:20:47.760Z,15.01
2019-06-08T23:25:51.249Z,14.88
2019-06-08T23:31:05.797Z,14.94
2019-06-08T23:36:34.242Z,14.94
2019-06-08T23:41:09.924Z,14.93
2019-06-08T23:46:12.439Z,14.82
2019-06-08T23:51:18.074Z,14.70
2019-06-08T23:56:22.318Z,14.71
